Aviation Digital Data Service (ADDS)

Output produced by TAFs form (0122 UTC 27 April 2017)
found at http://www.aviationweather.gov/adds/tafs/
 
METAR text: RJTO 270100Z 05019KT 9999 FEW007 SCT010 BKN025 13/11 Q1004
Conditions at: RJTO (OSHIMA AIRPORT , JP) observed 0100 UTC 27 April 2017
Temperature: 13.0°C (55°F)
Dewpoint: 11.0°C (52°F) [RH = 88%]
Pressure (altimeter): 29.65 inches Hg (1004.0 mb)
Winds: from the NE (50 degrees) at 22 MPH (19 knots; 9.9 m/s)
Visibility: 6 or more miles (10+ km)
Ceiling: 2500 feet AGL
Clouds: few clouds at 700 feet AGL
scattered clouds at 1000 feet AGL
broken clouds at 2500 feet AGL
Weather: no significant weather observed at this time